ITY13LT LIMJ-LIEO
Flight info
| Callsign | ITY13LT |
|---|---|
| Flight time | 0h 50m |
| Altitude | 19000 |
| Route | UNITA L50 KONER DCT ELB DCT DEDOM Z254 BATOX |
| Aircraft | A320/M-SDE3FGHIRWY/LB1 |
Departure
| Time | 2026-04-26 20:40 |
|---|---|
| Airport | Genoa Cristoforo Colombo Airport (LIMJ) |
Arrival
| Time | 2026-04-26 21:31 |
|---|---|
| Airport | Olbia Costa Smeralda Airport (LIEO) |
| Time | Latitude | Longitude | Altitude | Speed | Heading |
|---|---|---|---|---|---|
| 2026-04-26 20:16 | 44.41401 | 8.85101 | 21 ft | 0 kts | 16° |
| 2026-04-26 20:17 | 44.41491 | 8.84921 | 20 ft | 0 kts | 106° |
| 2026-04-26 20:31 | 44.41493 | 8.84909 | 22 ft | 2 kts | 106° |
| 2026-04-26 20:31 | 44.41498 | 8.84887 | 22 ft | 2 kts | 106° |
| 2026-04-26 20:31 | 44.41502 | 8.84866 | 24 ft | 2 kts | 106° |
| 2026-04-26 20:31 | 44.41507 | 8.84844 | 21 ft | 2 kts | 106° |
| 2026-04-26 20:32 | 44.41511 | 8.84822 | 21 ft | 2 kts | 106° |
| 2026-04-26 20:32 | 44.41516 | 8.84800 | 22 ft | 2 kts | 106° |
| 2026-04-26 20:32 | 44.41524 | 8.84781 | 20 ft | 2 kts | 201° |
| 2026-04-26 20:32 | 44.41534 | 8.84793 | 22 ft | 0 kts | 227° |
| 2026-04-26 20:35 | 44.41513 | 8.84760 | 22 ft | 7 kts | 230° |
| 2026-04-26 20:36 | 44.41484 | 8.84710 | 20 ft | 6 kts | 231° |
| 2026-04-26 20:36 | 44.41458 | 8.84671 | 20 ft | 5 kts | 218° |
| 2026-04-26 20:36 | 44.41408 | 8.84691 | 20 ft | 14 kts | 124° |
| 2026-04-26 20:36 | 44.41374 | 8.84856 | 20 ft | 19 kts | 105° |
| 2026-04-26 20:37 | 44.41340 | 8.85039 | 21 ft | 20 kts | 104° |
| 2026-04-26 20:37 | 44.41312 | 8.85186 | 22 ft | 12 kts | 105° |
| 2026-04-26 20:37 | 44.41265 | 8.85272 | 21 ft | 10 kts | 149° |
| 2026-04-26 20:37 | 44.41201 | 8.85271 | 21 ft | 9 kts | 193° |
| 2026-04-26 20:38 | 44.41121 | 8.85241 | 20 ft | 18 kts | 195° |
| 2026-04-26 20:38 | 44.41014 | 8.85199 | 18 ft | 15 kts | 151° |
| 2026-04-26 20:38 | 44.40976 | 8.85315 | 19 ft | 12 kts | 106° |
| 2026-04-26 20:38 | 44.40957 | 8.85411 | 20 ft | 9 kts | 105° |
| 2026-04-26 20:39 | 44.40925 | 8.85575 | 21 ft | 29 kts | 105° |
| 2026-04-26 20:39 | 44.40866 | 8.85880 | 25 ft | 33 kts | 103° |
| 2026-04-26 20:39 | 44.40866 | 8.86078 | 25 ft | 12 kts | 129° |
| 2026-04-26 20:39 | 44.40839 | 8.86054 | 22 ft | 15 kts | 259° |
| 2026-04-26 20:40 | 44.40897 | 8.85706 | 23 ft | 70 kts | 285° |
| 2026-04-26 20:40 | 44.41086 | 8.84748 | 21 ft | 132 kts | 285° |
| 2026-04-26 20:40 | 44.41372 | 8.83306 | 179 ft | 164 kts | 287° |
| 2026-04-26 20:40 | 44.41668 | 8.81768 | 794 ft | 166 kts | 285° |
| 2026-04-26 20:41 | 44.41971 | 8.80203 | 1449 ft | 167 kts | 284° |
| 2026-04-26 20:41 | 44.42276 | 8.78612 | 1969 ft | 177 kts | 283° |
| 2026-04-26 20:41 | 44.42351 | 8.76841 | 2337 ft | 189 kts | 248° |
| 2026-04-26 20:41 | 44.41546 | 8.75432 | 2888 ft | 189 kts | 210° |
| 2026-04-26 20:42 | 44.40319 | 8.74826 | 3477 ft | 189 kts | 182° |
| 2026-04-26 20:42 | 44.39031 | 8.75139 | 4031 ft | 191 kts | 153° |
| 2026-04-26 20:42 | 44.37880 | 8.76040 | 4617 ft | 193 kts | 150° |
| 2026-04-26 20:42 | 44.36692 | 8.76982 | 4954 ft | 199 kts | 150° |
| 2026-04-26 20:43 | 44.35491 | 8.77931 | 5007 ft | 198 kts | 150° |
| 2026-04-26 20:43 | 44.34296 | 8.78873 | 5010 ft | 197 kts | 150° |
| 2026-04-26 20:43 | 44.33097 | 8.79810 | 5009 ft | 197 kts | 150° |
| 2026-04-26 20:43 | 44.31897 | 8.80748 | 5040 ft | 201 kts | 151° |
| 2026-04-26 20:44 | 44.30555 | 8.81383 | 5562 ft | 206 kts | 172° |
| 2026-04-26 20:44 | 44.29051 | 8.81411 | 5893 ft | 228 kts | 181° |
| 2026-04-26 20:44 | 44.27361 | 8.81303 | 6216 ft | 252 kts | 182° |
| 2026-04-26 20:44 | 44.25528 | 8.81179 | 6632 ft | 272 kts | 182° |
| 2026-04-26 20:45 | 44.23635 | 8.81048 | 7312 ft | 279 kts | 182° |
| 2026-04-26 20:45 | 44.21689 | 8.81171 | 8086 ft | 283 kts | 165° |
| 2026-04-26 20:45 | 44.19879 | 8.82255 | 8873 ft | 285 kts | 149° |
| 2026-04-26 20:45 | 44.18143 | 8.83632 | 9692 ft | 289 kts | 149° |
| 2026-04-26 20:46 | 44.16394 | 8.85038 | 10442 ft | 293 kts | 149° |
| 2026-04-26 20:46 | 44.14564 | 8.86511 | 10734 ft | 315 kts | 149° |
| 2026-04-26 20:46 | 44.12593 | 8.88092 | 10931 ft | 338 kts | 149° |
| 2026-04-26 20:46 | 44.10486 | 8.89775 | 11136 ft | 359 kts | 149° |
| 2026-04-26 20:47 | 44.08293 | 8.91524 | 11668 ft | 367 kts | 149° |
| 2026-04-26 20:47 | 44.06822 | 8.92693 | 12107 ft | 369 kts | 149° |
| 2026-04-26 20:47 | 44.03813 | 8.95078 | 12998 ft | 375 kts | 149° |
| 2026-04-26 20:47 | 44.01536 | 8.96881 | 13668 ft | 379 kts | 149° |
| 2026-04-26 20:48 | 43.99231 | 8.98705 | 14277 ft | 383 kts | 150° |
| 2026-04-26 20:48 | 43.96910 | 9.00546 | 14841 ft | 386 kts | 150° |
| 2026-04-26 20:48 | 43.94591 | 9.02466 | 15406 ft | 390 kts | 145° |
| 2026-04-26 20:48 | 43.92448 | 9.04802 | 15971 ft | 394 kts | 140° |
| 2026-04-26 20:49 | 43.90336 | 9.07255 | 16542 ft | 398 kts | 140° |
| 2026-04-26 20:49 | 43.88205 | 9.09727 | 17108 ft | 401 kts | 140° |
| 2026-04-26 20:49 | 43.86049 | 9.12219 | 17667 ft | 405 kts | 141° |
| 2026-04-26 20:49 | 43.83869 | 9.14729 | 18220 ft | 409 kts | 141° |
| 2026-04-26 20:50 | 43.81694 | 9.17227 | 18722 ft | 413 kts | 141° |
| 2026-04-26 20:50 | 43.79473 | 9.19782 | 19067 ft | 416 kts | 141° |
| 2026-04-26 20:50 | 43.77244 | 9.22348 | 19166 ft | 422 kts | 141° |
| 2026-04-26 20:50 | 43.74947 | 9.24994 | 19183 ft | 437 kts | 141° |
| 2026-04-26 20:51 | 43.72580 | 9.27721 | 19184 ft | 448 kts | 141° |
| 2026-04-26 20:51 | 43.70179 | 9.30486 | 19177 ft | 450 kts | 141° |
| 2026-04-26 20:51 | 43.67769 | 9.33256 | 19176 ft | 451 kts | 141° |
| 2026-04-26 20:51 | 43.65354 | 9.36025 | 19180 ft | 451 kts | 141° |
| 2026-04-26 20:52 | 43.62939 | 9.38790 | 19180 ft | 451 kts | 141° |
| 2026-04-26 20:52 | 43.60521 | 9.41554 | 19180 ft | 451 kts | 141° |
| 2026-04-26 20:52 | 43.58104 | 9.44313 | 19180 ft | 451 kts | 141° |
| 2026-04-26 20:52 | 43.55685 | 9.47067 | 19180 ft | 451 kts | 141° |
| 2026-04-26 20:53 | 43.53263 | 9.49819 | 19179 ft | 451 kts | 141° |
| 2026-04-26 20:53 | 43.50838 | 9.52571 | 19175 ft | 451 kts | 141° |
| 2026-04-26 20:53 | 43.48413 | 9.55322 | 19177 ft | 451 kts | 141° |
| 2026-04-26 20:53 | 43.45991 | 9.58072 | 19176 ft | 452 kts | 141° |
| 2026-04-26 20:54 | 43.43569 | 9.60823 | 19174 ft | 452 kts | 141° |
| 2026-04-26 20:54 | 43.41145 | 9.63573 | 19173 ft | 452 kts | 141° |
| 2026-04-26 20:54 | 43.38721 | 9.66320 | 19169 ft | 452 kts | 141° |
| 2026-04-26 20:54 | 43.36296 | 9.69065 | 19170 ft | 452 kts | 141° |
| 2026-04-26 20:55 | 43.33868 | 9.71810 | 19170 ft | 452 kts | 141° |
| 2026-04-26 20:55 | 43.31439 | 9.74555 | 19175 ft | 452 kts | 141° |
| 2026-04-26 20:55 | 43.29006 | 9.77301 | 19176 ft | 452 kts | 141° |
| 2026-04-26 20:55 | 43.26571 | 9.80048 | 19179 ft | 453 kts | 141° |
| 2026-04-26 20:56 | 43.24169 | 9.82753 | 19180 ft | 453 kts | 141° |
| 2026-04-26 20:56 | 43.21733 | 9.85489 | 19180 ft | 453 kts | 141° |
| 2026-04-26 20:56 | 43.19295 | 9.88223 | 19183 ft | 453 kts | 141° |
| 2026-04-26 20:56 | 43.16856 | 9.90952 | 19183 ft | 453 kts | 141° |
| 2026-04-26 20:57 | 43.14417 | 9.93680 | 19180 ft | 453 kts | 141° |
| 2026-04-26 20:57 | 43.11982 | 9.96404 | 19181 ft | 453 kts | 141° |
| 2026-04-26 20:57 | 43.09544 | 9.99134 | 19178 ft | 453 kts | 141° |
| 2026-04-26 20:57 | 43.07106 | 10.01861 | 19178 ft | 453 kts | 141° |
| 2026-04-26 20:58 | 43.04664 | 10.04586 | 19175 ft | 453 kts | 141° |
| 2026-04-26 20:58 | 43.02219 | 10.07308 | 19177 ft | 453 kts | 141° |
| 2026-04-26 20:58 | 42.99774 | 10.10023 | 19177 ft | 453 kts | 141° |
| 2026-04-26 20:58 | 42.97325 | 10.12742 | 19176 ft | 453 kts | 141° |
| 2026-04-26 20:59 | 42.94882 | 10.15457 | 19174 ft | 453 kts | 141° |
| 2026-04-26 20:59 | 42.92433 | 10.18174 | 19174 ft | 453 kts | 141° |
| 2026-04-26 20:59 | 42.89988 | 10.20889 | 19173 ft | 453 kts | 141° |
| 2026-04-26 20:59 | 42.87545 | 10.23597 | 19174 ft | 453 kts | 141° |
| 2026-04-26 21:00 | 42.85100 | 10.26305 | 19171 ft | 453 kts | 141° |
| 2026-04-26 21:00 | 42.82690 | 10.28973 | 19169 ft | 452 kts | 141° |
| 2026-04-26 21:00 | 42.80248 | 10.31672 | 19166 ft | 452 kts | 141° |
| 2026-04-26 21:00 | 42.77797 | 10.34373 | 19164 ft | 452 kts | 142° |
| 2026-04-26 21:01 | 42.75190 | 10.36756 | 19159 ft | 452 kts | 152° |
| 2026-04-26 21:01 | 42.72330 | 10.38509 | 19162 ft | 451 kts | 161° |
| 2026-04-26 21:01 | 42.69303 | 10.39592 | 19155 ft | 450 kts | 171° |
| 2026-04-26 21:01 | 42.66194 | 10.40001 | 19158 ft | 448 kts | 178° |
| 2026-04-26 21:02 | 42.63073 | 10.40193 | 19157 ft | 449 kts | 178° |
| 2026-04-26 21:02 | 42.59951 | 10.40385 | 19159 ft | 449 kts | 178° |
| 2026-04-26 21:02 | 42.56830 | 10.40574 | 19166 ft | 449 kts | 178° |
| 2026-04-26 21:02 | 42.53709 | 10.40763 | 19168 ft | 449 kts | 178° |
| 2026-04-26 21:03 | 42.50580 | 10.40954 | 19166 ft | 449 kts | 178° |
| 2026-04-26 21:03 | 42.47460 | 10.41145 | 19166 ft | 449 kts | 178° |
| 2026-04-26 21:03 | 42.44340 | 10.41335 | 19176 ft | 449 kts | 178° |
| 2026-04-26 21:03 | 42.41210 | 10.41527 | 19175 ft | 449 kts | 178° |
| 2026-04-26 21:04 | 42.38126 | 10.41718 | 19175 ft | 449 kts | 178° |
| 2026-04-26 21:04 | 42.35005 | 10.41911 | 19175 ft | 449 kts | 178° |
| 2026-04-26 21:04 | 42.31881 | 10.42103 | 19179 ft | 449 kts | 178° |
| 2026-04-26 21:04 | 42.28760 | 10.42292 | 19178 ft | 449 kts | 178° |
| 2026-04-26 21:05 | 42.25638 | 10.42479 | 19175 ft | 449 kts | 178° |
| 2026-04-26 21:05 | 42.22520 | 10.42668 | 19178 ft | 449 kts | 178° |
| 2026-04-26 21:05 | 42.19398 | 10.42860 | 19176 ft | 449 kts | 178° |
| 2026-04-26 21:05 | 42.16277 | 10.43055 | 19178 ft | 449 kts | 178° |
| 2026-04-26 21:06 | 42.13162 | 10.43200 | 19171 ft | 448 kts | 181° |
| 2026-04-26 21:06 | 42.10065 | 10.42812 | 19173 ft | 447 kts | 191° |
| 2026-04-26 21:06 | 42.07031 | 10.41898 | 19171 ft | 446 kts | 194° |
| 2026-04-26 21:06 | 42.04007 | 10.40947 | 19168 ft | 446 kts | 194° |
| 2026-04-26 21:07 | 42.00984 | 10.40005 | 19168 ft | 446 kts | 194° |
| 2026-04-26 21:07 | 41.97959 | 10.39069 | 19167 ft | 446 kts | 193° |
| 2026-04-26 21:07 | 41.94937 | 10.38137 | 19165 ft | 446 kts | 193° |
| 2026-04-26 21:07 | 41.91917 | 10.37204 | 19164 ft | 446 kts | 193° |
| 2026-04-26 21:08 | 41.88892 | 10.36274 | 19165 ft | 446 kts | 193° |
| 2026-04-26 21:08 | 41.85874 | 10.35348 | 19165 ft | 446 kts | 193° |
| 2026-04-26 21:08 | 41.82844 | 10.34417 | 19163 ft | 446 kts | 193° |
| 2026-04-26 21:08 | 41.79823 | 10.33488 | 19164 ft | 445 kts | 193° |
| 2026-04-26 21:09 | 41.76798 | 10.32559 | 19167 ft | 445 kts | 193° |
| 2026-04-26 21:09 | 41.73780 | 10.31635 | 19167 ft | 445 kts | 193° |
| 2026-04-26 21:09 | 41.70756 | 10.30706 | 19169 ft | 445 kts | 193° |
| 2026-04-26 21:09 | 41.67734 | 10.29776 | 19170 ft | 445 kts | 193° |
| 2026-04-26 21:10 | 41.64717 | 10.28848 | 19172 ft | 445 kts | 193° |
| 2026-04-26 21:10 | 41.61734 | 10.27931 | 19172 ft | 445 kts | 193° |
| 2026-04-26 21:10 | 41.58712 | 10.27003 | 19174 ft | 446 kts | 193° |
| 2026-04-26 21:10 | 41.55688 | 10.26076 | 19180 ft | 446 kts | 193° |
| 2026-04-26 21:11 | 41.52665 | 10.25151 | 19180 ft | 446 kts | 193° |
| 2026-04-26 21:11 | 41.49642 | 10.24231 | 19181 ft | 446 kts | 193° |
| 2026-04-26 21:11 | 41.46620 | 10.23316 | 19184 ft | 446 kts | 193° |
| 2026-04-26 21:11 | 41.43594 | 10.22400 | 19187 ft | 445 kts | 193° |
| 2026-04-26 21:12 | 41.40571 | 10.21484 | 19183 ft | 445 kts | 193° |
| 2026-04-26 21:12 | 41.37546 | 10.20568 | 19183 ft | 445 kts | 193° |
| 2026-04-26 21:12 | 41.34528 | 10.19655 | 19187 ft | 445 kts | 193° |
| 2026-04-26 21:12 | 41.31509 | 10.18739 | 19181 ft | 445 kts | 193° |
| 2026-04-26 21:13 | 41.28494 | 10.17824 | 19179 ft | 445 kts | 193° |
| 2026-04-26 21:13 | 41.25485 | 10.16865 | 19180 ft | 444 kts | 197° |
| 2026-04-26 21:13 | 41.22602 | 10.15393 | 19170 ft | 444 kts | 206° |
| 2026-04-26 21:13 | 41.19956 | 10.13310 | 19172 ft | 443 kts | 216° |
| 2026-04-26 21:14 | 41.17612 | 10.10667 | 19166 ft | 442 kts | 225° |
| 2026-04-26 21:14 | 41.15477 | 10.07737 | 19165 ft | 442 kts | 226° |
| 2026-04-26 21:14 | 41.13367 | 10.04851 | 19162 ft | 442 kts | 226° |
| 2026-04-26 21:14 | 41.11220 | 10.01931 | 19165 ft | 442 kts | 226° |
| 2026-04-26 21:15 | 41.09071 | 9.99019 | 19161 ft | 442 kts | 226° |
| 2026-04-26 21:15 | 41.06918 | 9.96108 | 19160 ft | 442 kts | 226° |
| 2026-04-26 21:15 | 41.04761 | 9.93195 | 19161 ft | 443 kts | 226° |
| 2026-04-26 21:15 | 41.02609 | 9.90290 | 19097 ft | 438 kts | 226° |
| 2026-04-26 21:16 | 41.00494 | 9.87436 | 18513 ft | 432 kts | 226° |
| 2026-04-26 21:16 | 40.98401 | 9.84607 | 17830 ft | 428 kts | 226° |
| 2026-04-26 21:16 | 40.96338 | 9.81814 | 17397 ft | 418 kts | 226° |
| 2026-04-26 21:16 | 40.94348 | 9.79118 | 17268 ft | 402 kts | 226° |
| 2026-04-26 21:17 | 40.92424 | 9.76517 | 17136 ft | 388 kts | 226° |
| 2026-04-26 21:17 | 40.90566 | 9.74015 | 16965 ft | 376 kts | 226° |
| 2026-04-26 21:17 | 40.88749 | 9.71575 | 16585 ft | 370 kts | 226° |
| 2026-04-26 21:17 | 40.86947 | 9.69161 | 16307 ft | 368 kts | 226° |
| 2026-04-26 21:18 | 40.85150 | 9.66754 | 16053 ft | 368 kts | 226° |
| 2026-04-26 21:18 | 40.83357 | 9.64354 | 15808 ft | 366 kts | 226° |
| 2026-04-26 21:18 | 40.81595 | 9.61994 | 15566 ft | 365 kts | 226° |
| 2026-04-26 21:18 | 40.79814 | 9.59604 | 15318 ft | 356 kts | 227° |
| 2026-04-26 21:19 | 40.78338 | 9.57088 | 15080 ft | 347 kts | 236° |
| 2026-04-26 21:19 | 40.76981 | 9.54491 | 14834 ft | 340 kts | 236° |
| 2026-04-26 21:19 | 40.75653 | 9.51947 | 14605 ft | 333 kts | 236° |
| 2026-04-26 21:19 | 40.74357 | 9.49464 | 14454 ft | 323 kts | 236° |
| 2026-04-26 21:20 | 40.73100 | 9.47065 | 14332 ft | 313 kts | 236° |
| 2026-04-26 21:20 | 40.71872 | 9.44724 | 14110 ft | 308 kts | 236° |
| 2026-04-26 21:20 | 40.70654 | 9.42412 | 13785 ft | 306 kts | 236° |
| 2026-04-26 21:20 | 40.69442 | 9.40117 | 13430 ft | 303 kts | 236° |
| 2026-04-26 21:21 | 40.68245 | 9.37855 | 12840 ft | 300 kts | 236° |
| 2026-04-26 21:21 | 40.67057 | 9.35610 | 12207 ft | 298 kts | 236° |
| 2026-04-26 21:21 | 40.65879 | 9.33382 | 11607 ft | 295 kts | 236° |
| 2026-04-26 21:21 | 40.64709 | 9.31167 | 11081 ft | 296 kts | 236° |
| 2026-04-26 21:22 | 40.63530 | 9.28930 | 10618 ft | 298 kts | 236° |
| 2026-04-26 21:22 | 40.62363 | 9.26711 | 10441 ft | 290 kts | 237° |
| 2026-04-26 21:22 | 40.61596 | 9.24263 | 9793 ft | 296 kts | 265° |
| 2026-04-26 21:23 | 40.63155 | 9.19682 | 8892 ft | 274 kts | 319° |
| 2026-04-26 21:23 | 40.64689 | 9.18286 | 8497 ft | 264 kts | 333° |
| 2026-04-26 21:23 | 40.66402 | 9.17473 | 8115 ft | 262 kts | 347° |
| 2026-04-26 21:23 | 40.68231 | 9.17243 | 7602 ft | 266 kts | 2° |
| 2026-04-26 21:24 | 40.70027 | 9.17631 | 7112 ft | 260 kts | 17° |
| 2026-04-26 21:24 | 40.71674 | 9.18593 | 6523 ft | 259 kts | 32° |
| 2026-04-26 21:24 | 40.72624 | 9.19513 | 6234 ft | 253 kts | 42° |
| 2026-04-26 21:24 | 40.73768 | 9.21180 | 6009 ft | 236 kts | 55° |
| 2026-04-26 21:25 | 40.74693 | 9.22929 | 5810 ft | 228 kts | 55° |
| 2026-04-26 21:25 | 40.75588 | 9.24617 | 5495 ft | 221 kts | 55° |
| 2026-04-26 21:25 | 40.76450 | 9.26248 | 5198 ft | 212 kts | 55° |
| 2026-04-26 21:25 | 40.77527 | 9.28288 | 4749 ft | 198 kts | 56° |
| 2026-04-26 21:26 | 40.78306 | 9.29765 | 4446 ft | 195 kts | 56° |
| 2026-04-26 21:26 | 40.78827 | 9.30752 | 4237 ft | 193 kts | 56° |
| 2026-04-26 21:26 | 40.79590 | 9.32200 | 3951 ft | 192 kts | 56° |
| 2026-04-26 21:26 | 40.80332 | 9.33607 | 3658 ft | 180 kts | 56° |
| 2026-04-26 21:27 | 40.81022 | 9.34918 | 3414 ft | 166 kts | 56° |
| 2026-04-26 21:27 | 40.81656 | 9.36122 | 3145 ft | 155 kts | 56° |
| 2026-04-26 21:27 | 40.82250 | 9.37251 | 2915 ft | 150 kts | 56° |
| 2026-04-26 21:27 | 40.82839 | 9.38370 | 2692 ft | 147 kts | 56° |
| 2026-04-26 21:28 | 40.83421 | 9.39477 | 2457 ft | 146 kts | 56° |
| 2026-04-26 21:28 | 40.84000 | 9.40579 | 2229 ft | 146 kts | 56° |
| 2026-04-26 21:28 | 40.84576 | 9.41675 | 2009 ft | 145 kts | 56° |
| 2026-04-26 21:28 | 40.85149 | 9.42765 | 1775 ft | 144 kts | 56° |
| 2026-04-26 21:29 | 40.85719 | 9.43851 | 1540 ft | 144 kts | 56° |
| 2026-04-26 21:29 | 40.86289 | 9.44938 | 1317 ft | 143 kts | 56° |
| 2026-04-26 21:29 | 40.86856 | 9.46019 | 1091 ft | 143 kts | 56° |
| 2026-04-26 21:29 | 40.87421 | 9.47099 | 857 ft | 142 kts | 56° |
| 2026-04-26 21:30 | 40.87983 | 9.48170 | 640 ft | 141 kts | 56° |
| 2026-04-26 21:30 | 40.88543 | 9.49238 | 409 ft | 141 kts | 56° |
| 2026-04-26 21:30 | 40.89100 | 9.50302 | 198 ft | 141 kts | 56° |
| 2026-04-26 21:30 | 40.89652 | 9.51350 | 42 ft | 128 kts | 55° |
| 2026-04-26 21:31 | 40.89985 | 9.51986 | 36 ft | 42 kts | 55° |
| 2026-04-26 21:31 | 40.90188 | 9.52372 | 37 ft | 54 kts | 55° |
| 2026-04-26 21:31 | 40.90371 | 9.52677 | 34 ft | 28 kts | 25° |
| 2026-04-26 21:31 | 40.90449 | 9.52617 | 34 ft | 13 kts | 284° |
| 2026-04-26 21:32 | 40.90452 | 9.52510 | 35 ft | 12 kts | 259° |
| 2026-04-26 21:32 | 40.90378 | 9.52349 | 36 ft | 26 kts | 237° |
| 2026-04-26 21:32 | 40.90275 | 9.52152 | 36 ft | 27 kts | 236° |
| 2026-04-26 21:32 | 40.90182 | 9.51971 | 38 ft | 16 kts | 243° |
| 2026-04-26 21:33 | 40.90201 | 9.51827 | 38 ft | 17 kts | 314° |
| 2026-04-26 21:33 | 40.90203 | 9.51705 | 39 ft | 12 kts | 274° |
| 2026-04-26 21:33 | 40.90219 | 9.51681 | 37 ft | 4 kts | 320° |
| 2026-04-26 21:33 | 40.90242 | 9.51656 | 39 ft | 0 kts | 322° |
| 2026-04-26 21:34 | 40.90243 | 9.51655 | 39 ft | 0 kts | 324° |
| 2026-04-26 21:38 | 40.90244 | 9.51655 | 39 ft | 0 kts | 324° |